createdAt,value
2018-04-23T00:00:03.933Z,83.10
2018-04-23T00:02:34.284Z,83.50
2018-04-23T00:05:04.268Z,83.50
2018-04-23T00:07:34.640Z,83.20
2018-04-23T00:10:04.507Z,82.80
2018-04-23T00:12:35.952Z,83.30
2018-04-23T00:15:05.739Z,83.20
2018-04-23T00:17:36.269Z,83.10
2018-04-23T00:20:05.941Z,83.00
2018-04-23T00:22:35.693Z,83.00
2018-04-23T00:25:05.564Z,83.40
2018-04-23T00:27:36.813Z,83.30
2018-04-23T00:30:06.437Z,83.20
2018-04-23T00:32:36.172Z,83.10
2018-04-23T00:35:05.988Z,83.80
2018-04-23T00:37:36.412Z,84.00
2018-04-23T00:40:06.019Z,84.00
2018-04-23T00:42:35.745Z,84.00
2018-04-23T00:47:41.914Z,83.80
2018-04-23T00:50:11.454Z,84.00
2018-04-23T00:52:41.063Z,84.20
2018-04-23T00:55:12.838Z,84.90
2018-04-23T00:57:43.315Z,84.20
2018-04-23T01:00:15.310Z,84.00
2018-04-23T01:02:45.158Z,83.90
2018-04-23T01:05:16.116Z,83.50
2018-04-23T01:07:46.976Z,83.90
2018-04-23T01:10:18.765Z,85.60
2018-04-23T01:12:49.133Z,86.40
2018-04-23T01:15:19.008Z,86.40
2018-04-23T01:17:49.431Z,87.30
2018-04-23T01:20:19.787Z,87.00
2018-04-23T01:22:51.006Z,87.20
2018-04-23T01:25:21.706Z,88.00
2018-04-23T01:27:51.527Z,88.00
2018-04-23T01:30:21.322Z,88.90
2018-04-23T01:32:51.026Z,88.60
2018-04-23T01:35:24.998Z,88.00
2018-04-23T01:37:56.258Z,89.70
2018-04-23T01:40:25.899Z,89.70
2018-04-23T01:42:55.552Z,88.60
2018-04-23T01:45:25.172Z,88.40
2018-04-23T01:47:55.530Z,87.40
2018-04-23T01:50:25.030Z,87.30
2018-04-23T01:52:54.994Z,86.70
2018-04-23T01:55:24.768Z,87.00
2018-04-23T01:57:55.516Z,88.00
2018-04-23T02:00:25.226Z,88.90
2018-04-23T02:02:55.129Z,88.40
2018-04-23T02:05:25.014Z,88.00
2018-04-23T02:07:55.611Z,87.70
2018-04-23T02:10:25.318Z,88.40
2018-04-23T02:12:55.119Z,88.10
2018-04-23T02:15:25.854Z,87.90
2018-04-23T02:17:56.904Z,87.90
2018-04-23T02:20:28.191Z,87.80
2018-04-23T02:22:57.770Z,88.40
2018-04-23T02:25:28.616Z,88.20
2018-04-23T02:27:59.391Z,88.80
2018-04-23T02:30:29.971Z,89.00
2018-04-23T02:32:59.495Z,89.00
2018-04-23T02:35:30.116Z,89.50
2018-04-23T02:38:00.722Z,89.40
2018-04-23T02:40:30.394Z,89.30
2018-04-23T02:43:00.046Z,89.20
2018-04-23T02:45:29.714Z,89.40
2018-04-23T02:47:59.337Z,90.90
2018-04-23T02:50:29.991Z,91.30
2018-04-23T02:52:59.615Z,91.20
2018-04-23T02:55:30.092Z,91.30
2018-04-23T02:57:59.739Z,91.30
2018-04-23T03:00:30.190Z,91.50
2018-04-23T03:03:05.031Z,92.10
2018-04-23T03:05:35.394Z,92.10
2018-04-23T03:08:04.980Z,92.10
2018-04-23T03:10:35.557Z,90.50
2018-04-23T03:13:05.138Z,90.40
2018-04-23T03:15:34.857Z,89.80
2018-04-23T03:18:05.506Z,89.90
2018-04-23T03:20:35.120Z,89.00
2018-04-23T03:25:40.048Z,88.40
2018-04-23T03:28:09.711Z,88.70
2018-04-23T03:30:39.187Z,88.80
2018-04-23T03:33:08.700Z,87.60
2018-04-23T03:35:38.379Z,87.10
2018-04-23T03:38:08.002Z,87.00
2018-04-23T03:40:37.590Z,87.10
2018-04-23T03:43:07.171Z,88.40
2018-04-23T03:45:36.908Z,88.80
2018-04-23T03:48:06.618Z,88.30
2018-04-23T03:50:36.258Z,88.30
2018-04-23T03:53:06.073Z,88.30
2018-04-23T03:55:35.733Z,89.00
2018-04-23T03:58:06.353Z,89.20
2018-04-23T04:00:43.079Z,89.20
2018-04-23T04:03:12.759Z,90.00
2018-04-23T04:05:43.229Z,90.70
2018-04-23T04:08:12.928Z,90.60
2018-04-23T04:10:42.648Z,90.40
2018-04-23T04:13:31.200Z,91.70
2018-04-23T04:18:54.561Z,92.00
2018-04-23T04:21:24.117Z,92.50
2018-04-23T04:23:54.482Z,92.10
2018-04-23T04:26:24.274Z,92.00
2018-04-23T04:28:55.784Z,92.00
2018-04-23T04:31:26.100Z,92.00
2018-04-23T04:33:55.826Z,91.70
2018-04-23T04:36:27.065Z,90.70
2018-04-23T04:38:59.158Z,91.10
2018-04-23T04:41:28.627Z,91.10
2018-04-23T04:43:58.141Z,91.30
2018-04-23T04:46:28.645Z,91.70
2018-04-23T04:48:58.382Z,91.70
2018-04-23T04:51:28.909Z,90.80
2018-04-23T04:53:58.480Z,90.70
2018-04-23T04:56:28.337Z,89.50
2018-04-23T04:58:58.187Z,89.50
2018-04-23T05:01:27.858Z,88.60
2018-04-23T05:03:57.429Z,87.30
2018-04-23T05:06:27.760Z,83.00
2018-04-23T05:08:57.394Z,83.00
2018-04-23T05:11:26.866Z,80.20
2018-04-23T05:13:57.411Z,80.50
2018-04-23T05:16:27.005Z,79.60
2018-04-23T05:18:56.538Z,79.60
2018-04-23T05:21:26.160Z,79.40
2018-04-23T05:23:55.772Z,76.00
2018-04-23T05:26:25.426Z,74.00
2018-04-23T05:28:55.850Z,73.40
2018-04-23T05:31:26.120Z,70.50
2018-04-23T05:33:56.041Z,70.40
2018-04-23T05:36:25.755Z,70.60
2018-04-23T05:38:55.822Z,70.00
2018-04-23T05:41:26.174Z,66.40
2018-04-23T05:43:56.161Z,66.30
2018-04-23T05:46:25.791Z,66.50
2018-04-23T05:48:55.554Z,66.80
2018-04-23T05:51:25.339Z,63.60
2018-04-23T05:53:55.270Z,65.50
2018-04-23T05:56:24.978Z,65.70
2018-04-23T05:58:54.633Z,64.20
2018-04-23T06:01:24.399Z,63.40
2018-04-23T06:03:54.113Z,61.50
2018-04-23T06:06:23.693Z,59.50
2018-04-23T06:08:53.541Z,58.10
2018-04-23T06:11:24.128Z,56.50
2018-04-23T06:13:53.745Z,55.60
2018-04-23T06:16:23.810Z,54.00
2018-04-23T06:18:53.354Z,53.10
2018-04-23T06:21:23.065Z,50.70
2018-04-23T06:23:53.501Z,47.90
2018-04-23T06:26:24.272Z,47.50
2018-04-23T06:28:55.704Z,48.40
2018-04-23T06:31:25.620Z,48.30
2018-04-23T06:33:55.873Z,45.90
2018-04-23T06:36:26.540Z,48.20
2018-04-23T06:38:56.454Z,48.00
2018-04-23T06:41:26.228Z,49.20
2018-04-23T06:43:55.991Z,49.40
2018-04-23T06:46:25.838Z,45.80
2018-04-23T06:48:55.341Z,43.80
2018-04-23T06:51:25.020Z,46.30
2018-04-23T06:53:58.062Z,42.90
2018-04-23T06:56:27.976Z,42.70
2018-04-23T06:58:59.723Z,41.30
2018-04-23T07:01:29.204Z,40.60
2018-04-23T07:04:01.232Z,41.30
2018-04-23T07:06:30.953Z,40.10
2018-04-23T07:09:00.797Z,40.00
2018-04-23T07:11:31.044Z,35.70
2018-04-23T07:14:01.327Z,33.20
2018-04-23T07:19:05.461Z,31.80
2018-04-23T07:21:35.047Z,31.70
2018-04-23T07:24:05.560Z,30.60
2018-04-23T07:26:35.249Z,30.50
2018-04-23T07:29:04.847Z,34.80
2018-04-23T07:31:35.078Z,32.90
2018-04-23T07:34:05.612Z,34.80
2018-04-23T07:36:35.134Z,31.80
2018-04-23T07:39:08.778Z,30.70
2018-04-23T07:41:38.839Z,30.80
2018-04-23T07:44:08.514Z,34.80
2018-04-23T07:46:38.767Z,35.30
2018-04-23T07:49:08.480Z,35.30
2018-04-23T07:51:37.980Z,34.80
2018-04-23T07:54:08.630Z,39.40
2018-04-23T07:56:38.449Z,41.80
2018-04-23T07:59:07.981Z,43.50
2018-04-23T08:01:38.605Z,45.60
2018-04-23T08:04:09.074Z,47.00
2018-04-23T08:06:38.781Z,47.00
2018-04-23T08:09:08.490Z,47.10
2018-04-23T08:11:38.468Z,48.50
2018-04-23T08:14:08.013Z,49.90
2018-04-23T08:16:37.917Z,53.40
2018-04-23T08:19:08.489Z,65.40
2018-04-23T08:21:38.183Z,65.50
2018-04-23T08:24:07.777Z,65.60
2018-04-23T08:26:37.512Z,59.80
2018-04-23T08:29:07.330Z,65.40
2018-04-23T08:31:37.136Z,64.10
2018-04-23T08:34:06.957Z,60.90
2018-04-23T08:36:36.560Z,62.70
2018-04-23T08:39:08.777Z,62.20
2018-04-23T08:44:15.328Z,65.40
2018-04-23T08:46:45.129Z,65.50
2018-04-23T08:49:14.884Z,64.90
2018-04-23T08:51:44.864Z,60.90
2018-04-23T08:56:50.230Z,62.30
2018-04-23T08:59:19.820Z,62.30
2018-04-23T09:01:49.519Z,61.60
2018-04-23T09:04:19.169Z,60.90
2018-04-23T09:06:48.670Z,57.30
2018-04-23T09:11:53.231Z,58.70
2018-04-23T09:14:23.505Z,60.00
2018-04-23T09:16:53.341Z,60.00
2018-04-23T09:19:26.942Z,58.10
2018-04-23T09:21:56.617Z,55.70
2018-04-23T09:24:27.277Z,57.80
2018-04-23T09:26:56.998Z,58.40
2018-04-23T09:29:27.212Z,57.30
2018-04-23T09:31:56.834Z,56.90
2018-04-23T09:34:26.348Z,57.90
2018-04-23T09:36:56.039Z,57.80
2018-04-23T09:39:25.706Z,56.90
2018-04-23T09:41:56.129Z,61.10
2018-04-23T09:44:26.645Z,61.90
2018-04-23T09:46:56.626Z,61.90
2018-04-23T09:49:26.235Z,60.90
2018-04-23T09:51:56.131Z,65.40
2018-04-23T09:54:26.204Z,66.40
2018-04-23T09:56:56.641Z,65.30
2018-04-23T09:59:38.942Z,65.40
2018-04-23T10:02:09.319Z,64.80
2018-04-23T10:04:39.160Z,64.70
2018-04-23T10:07:08.792Z,66.90
2018-04-23T10:09:39.366Z,67.40
2018-04-23T10:12:08.977Z,68.50
2018-04-23T10:14:38.770Z,70.40
2018-04-23T10:17:08.407Z,69.90
2018-04-23T10:19:38.145Z,70.60
2018-04-23T10:22:07.883Z,76.50
2018-04-23T10:24:38.436Z,67.30
2018-04-23T10:27:08.173Z,67.30
2018-04-23T10:29:38.914Z,68.40
2018-04-23T10:32:08.606Z,69.50
2018-04-23T10:34:39.464Z,71.00
2018-04-23T10:37:09.414Z,71.70
2018-04-23T10:39:39.483Z,73.30
2018-04-23T10:42:09.055Z,74.80
2018-04-23T10:44:39.154Z,77.80
2018-04-23T10:57:16.876Z,74.20
2018-04-23T10:59:47.848Z,76.80
2018-04-23T11:02:18.732Z,80.30
2018-04-23T11:04:49.254Z,85.10
2018-04-23T11:07:19.473Z,85.30
2018-04-23T11:09:49.845Z,84.80
2018-04-23T11:12:19.430Z,84.90
2018-04-23T11:14:49.578Z,83.20
2018-04-23T11:17:19.247Z,84.60
2018-04-23T11:19:48.880Z,87.80
2018-04-23T11:22:18.369Z,84.50
2018-04-23T11:24:48.093Z,86.50
2018-04-23T11:27:17.931Z,85.40
2018-04-23T11:29:47.849Z,85.10
2018-04-23T11:32:18.474Z,82.70
2018-04-23T11:34:48.179Z,82.80
2018-04-23T11:37:18.772Z,85.80
2018-04-23T11:39:48.492Z,85.20
2018-04-23T11:42:48.158Z,84.30
2018-04-23T11:45:18.610Z,84.20
2018-04-23T11:47:48.261Z,85.30
2018-04-23T11:50:20.618Z,85.80
2018-04-23T11:52:50.203Z,85.60
2018-04-23T11:55:19.939Z,80.20
2018-04-23T11:57:50.544Z,84.50
2018-04-23T12:00:21.188Z,83.60
2018-04-23T12:02:51.547Z,87.80
2018-04-23T12:05:21.408Z,87.80
2018-04-23T12:07:52.006Z,82.20
2018-04-23T12:10:21.633Z,82.30
2018-04-23T12:12:51.429Z,83.80
2018-04-23T12:15:21.002Z,81.30
2018-04-23T12:17:50.641Z,81.30
2018-04-23T12:20:21.523Z,82.60
2018-04-23T12:22:51.062Z,81.00
2018-04-23T12:25:20.802Z,81.90
2018-04-23T12:27:50.544Z,82.50
2018-04-23T12:30:21.418Z,80.20
2018-04-23T12:32:51.073Z,77.30
2018-04-23T12:35:28.962Z,78.60
2018-04-23T12:37:58.667Z,77.50
2018-04-23T12:40:28.280Z,78.00
2018-04-23T12:42:58.795Z,79.80
2018-04-23T12:45:28.426Z,79.80
2018-04-23T12:47:57.936Z,77.40
2018-04-23T12:50:27.447Z,76.90
2018-04-23T12:52:58.025Z,74.70
2018-04-23T12:55:27.744Z,74.20
2018-04-23T12:57:57.802Z,74.50
2018-04-23T13:03:59.554Z,72.50
2018-04-23T13:06:49.553Z,76.70
2018-04-23T13:09:19.276Z,76.80
2018-04-23T13:11:50.487Z,71.90
2018-04-23T13:14:20.066Z,73.20
2018-04-23T13:16:49.790Z,75.50
2018-04-23T13:19:20.098Z,74.50
2018-04-23T13:21:50.681Z,73.20
2018-04-23T13:24:20.952Z,73.20
2018-04-23T13:29:26.069Z,70.70
2018-04-23T13:31:55.724Z,70.30
2018-04-23T13:34:26.611Z,65.80
2018-04-23T13:36:56.635Z,65.90
2018-04-23T13:39:26.455Z,65.00
2018-04-23T13:44:31.881Z,66.20
2018-04-23T13:47:01.564Z,63.80
2018-04-23T13:49:32.591Z,61.00
2018-04-23T13:52:03.351Z,62.20
2018-04-23T13:54:33.933Z,62.30
2018-04-23T13:57:07.374Z,59.00
2018-04-23T13:59:42.399Z,58.90
2018-04-23T14:05:38.157Z,53.70
2018-04-23T14:08:30.698Z,51.50
2018-04-23T14:11:09.726Z,47.50
2018-04-23T14:13:59.315Z,44.80
2018-04-23T14:16:42.636Z,44.70
2018-04-23T14:19:13.535Z,41.90
2018-04-23T14:21:43.349Z,43.10
2018-04-23T14:24:13.830Z,43.10
2018-04-23T14:26:43.488Z,43.20
2018-04-23T14:29:13.117Z,41.50
2018-04-23T14:31:42.698Z,40.90
2018-04-23T14:34:12.546Z,42.70
2018-04-23T14:36:42.534Z,42.80
2018-04-23T14:39:12.033Z,41.50
2018-04-23T14:44:16.401Z,44.60
2018-04-23T14:46:46.062Z,47.10
2018-04-23T14:49:15.897Z,46.40
2018-04-23T14:51:45.455Z,50.30
2018-04-23T14:54:15.849Z,47.50
2018-04-23T14:56:46.136Z,48.10
2018-04-23T14:59:16.688Z,51.30
2018-04-23T15:01:46.411Z,51.80
2018-04-23T15:04:18.025Z,47.00
2018-04-23T15:06:47.478Z,47.10
2018-04-23T15:09:17.180Z,47.40
2018-04-23T15:11:47.179Z,44.20
2018-04-23T15:14:18.465Z,45.30
2018-04-23T15:16:48.801Z,44.80
2018-04-23T15:19:19.378Z,44.80
2018-04-23T15:21:49.101Z,44.40
2018-04-23T15:24:18.732Z,43.30
2018-04-23T15:26:48.303Z,44.60
2018-04-23T15:29:18.066Z,42.90
2018-04-23T15:31:52.393Z,46.70
2018-04-23T15:34:22.904Z,43.70
2018-04-23T15:36:52.425Z,43.80
2018-04-23T15:39:22.047Z,41.60
2018-04-23T15:41:51.905Z,43.10
2018-04-23T15:44:21.679Z,42.10
2018-04-23T15:46:51.347Z,41.70
2018-04-23T15:49:20.983Z,41.80
2018-04-23T15:51:51.220Z,42.40
2018-04-23T15:54:20.817Z,42.50
2018-04-23T15:56:50.613Z,42.70
2018-04-23T15:59:21.027Z,39.50
2018-04-23T16:01:50.597Z,39.70
2018-04-23T16:04:20.165Z,39.70
2018-04-23T16:06:49.929Z,41.10
2018-04-23T16:09:19.807Z,42.10
2018-04-23T16:11:49.652Z,40.90
2018-04-23T16:14:19.321Z,41.20
2018-04-23T16:16:51.527Z,41.60
2018-04-23T16:19:22.325Z,40.30
2018-04-23T16:21:53.228Z,39.50
2018-04-23T16:24:23.155Z,39.60
2018-04-23T16:26:52.928Z,39.70
2018-04-23T16:29:22.508Z,38.70
2018-04-23T16:31:52.246Z,38.70
2018-04-23T16:34:21.773Z,39.10
2018-04-23T16:36:52.378Z,39.00
2018-04-23T16:39:22.885Z,39.20
2018-04-23T16:41:52.870Z,39.20
2018-04-23T16:44:27.167Z,41.10
2018-04-23T16:46:53.352Z,41.10
2018-04-23T16:49:23.041Z,39.20
2018-04-23T16:51:52.600Z,38.70
2018-04-23T16:56:57.282Z,40.70
2018-04-23T16:59:28.251Z,39.60
2018-04-23T17:01:58.006Z,39.80
2018-04-23T17:04:27.714Z,39.60
2018-04-23T17:06:57.732Z,39.40
2018-04-23T17:09:27.554Z,39.20
2018-04-23T17:11:57.564Z,39.70
2018-04-23T17:14:27.305Z,39.40
2018-04-23T17:16:57.001Z,38.90
2018-04-23T17:19:26.592Z,39.00
2018-04-23T17:21:56.208Z,38.80
2018-04-23T17:24:26.041Z,38.60
2018-04-23T17:26:55.802Z,38.70
2018-04-23T17:29:25.709Z,38.60
2018-04-23T17:31:55.658Z,38.60
2018-04-23T17:34:25.493Z,38.50
2018-04-23T17:36:55.995Z,39.10
2018-04-23T17:39:25.975Z,39.10
2018-04-23T17:41:55.522Z,38.70
2018-04-23T17:44:25.228Z,38.90
2018-04-23T17:46:54.983Z,38.50
2018-04-23T17:49:24.694Z,38.60
2018-04-23T17:51:55.501Z,38.20
2018-04-23T17:54:25.058Z,38.70
2018-04-23T17:56:54.714Z,39.60
2018-04-23T17:59:37.095Z,39.10
2018-04-23T18:02:06.844Z,39.20
2018-04-23T18:04:36.958Z,39.60
2018-04-23T18:07:07.074Z,39.30
2018-04-23T18:09:37.172Z,39.80
2018-04-23T18:12:07.005Z,39.30
2018-04-23T18:14:46.669Z,39.90
2018-04-23T18:17:17.279Z,40.00
2018-04-23T18:19:46.991Z,39.80
2018-04-23T18:22:16.569Z,39.70
2018-04-23T18:24:47.659Z,40.00
2018-04-23T18:27:18.064Z,38.90
2018-04-23T18:29:47.785Z,38.90
2018-04-23T18:32:17.664Z,38.60
2018-04-23T18:34:48.192Z,38.60
2018-04-23T18:39:52.412Z,38.90
2018-04-23T18:42:22.081Z,38.40
2018-04-23T18:44:52.157Z,38.00
2018-04-23T18:47:23.625Z,38.30
2018-04-23T18:49:53.858Z,37.80
2018-04-23T18:52:23.636Z,38.10
2018-04-23T18:54:54.092Z,36.90
2018-04-23T18:57:24.845Z,36.90
2018-04-23T18:59:55.473Z,36.30
2018-04-23T19:02:25.915Z,36.50
2018-04-23T19:04:56.186Z,36.10
2018-04-23T19:07:28.452Z,36.30
2018-04-23T19:12:35.748Z,36.30
2018-04-23T19:15:07.291Z,35.80
2018-04-23T19:17:38.994Z,36.00
2018-04-23T19:20:09.780Z,35.50
2018-04-23T19:22:40.503Z,35.90
2018-04-23T19:25:11.761Z,36.20
2018-04-23T19:27:42.221Z,35.80
2018-04-23T19:30:11.976Z,35.40
2018-04-23T19:32:41.885Z,33.90
2018-04-23T19:35:11.837Z,33.90
2018-04-23T19:37:41.574Z,33.50
2018-04-23T19:40:11.443Z,33.60
2018-04-23T19:42:42.700Z,33.30
2018-04-23T19:45:12.353Z,33.40
2018-04-23T19:47:43.474Z,33.10
2018-04-23T19:50:13.394Z,33.10
2018-04-23T19:52:43.221Z,32.60
2018-04-23T19:55:14.249Z,32.00
2018-04-23T19:57:44.287Z,31.60
2018-04-23T20:00:16.437Z,31.30
2018-04-23T20:02:46.945Z,31.30
2018-04-23T20:05:18.757Z,30.50
2018-04-23T20:07:48.631Z,30.50
2018-04-23T20:10:20.195Z,30.30
2018-04-23T20:12:50.653Z,30.50
2018-04-23T20:15:21.396Z,30.50
2018-04-23T20:17:51.295Z,30.10
2018-04-23T20:20:21.241Z,30.10
2018-04-23T20:22:50.913Z,31.00
2018-04-23T20:25:20.476Z,31.90
2018-04-23T20:27:50.614Z,32.80
2018-04-23T20:30:20.495Z,33.60
2018-04-23T20:32:51.753Z,35.20
2018-04-23T20:35:21.455Z,35.10
2018-04-23T20:37:51.255Z,35.90
2018-04-23T20:40:21.497Z,36.50
2018-04-23T20:42:51.371Z,37.40
2018-04-23T20:45:21.287Z,37.60
2018-04-23T20:47:51.218Z,37.60
2018-04-23T20:50:21.555Z,37.30
2018-04-23T20:52:51.760Z,38.10
2018-04-23T20:55:23.096Z,36.40
2018-04-23T20:57:52.731Z,36.20
2018-04-23T21:00:22.447Z,36.70
2018-04-23T21:02:52.053Z,36.90
2018-04-23T21:05:21.590Z,35.90
2018-04-23T21:10:26.019Z,37.10
2018-04-23T21:12:56.926Z,37.80
2018-04-23T21:15:31.354Z,37.20
2018-04-23T21:18:00.969Z,37.60
2018-04-23T21:20:30.677Z,37.30
2018-04-23T21:23:00.896Z,37.30
2018-04-23T21:25:31.237Z,36.80
2018-04-23T21:28:01.048Z,36.40
2018-04-23T21:30:30.625Z,35.80
2018-04-23T21:33:01.099Z,36.40
2018-04-23T21:35:30.674Z,36.30
2018-04-23T21:38:01.025Z,37.00
2018-04-23T21:40:31.438Z,37.00
2018-04-23T21:43:01.117Z,37.00
2018-04-23T21:45:31.403Z,37.10
2018-04-23T21:48:01.076Z,37.00
2018-04-23T21:50:30.759Z,38.60
2018-04-23T21:53:10.636Z,40.20
2018-04-23T21:55:40.627Z,40.00
2018-04-23T21:58:14.165Z,41.60
2018-04-23T22:00:44.120Z,41.60
2018-04-23T22:03:13.733Z,42.00
2018-04-23T22:05:43.587Z,42.80
2018-04-23T22:08:13.367Z,43.50
2018-04-23T22:10:42.921Z,45.00
2018-04-23T22:13:12.527Z,45.90
2018-04-23T22:15:42.981Z,46.30
2018-04-23T22:18:12.717Z,46.20
2018-04-23T22:20:42.234Z,46.10
2018-04-23T22:23:12.517Z,45.90
2018-04-23T22:25:42.416Z,45.30
2018-04-23T22:28:12.083Z,44.50
2018-04-23T22:33:17.771Z,45.80
2018-04-23T22:35:47.469Z,47.20
2018-04-23T22:38:17.741Z,48.90
2018-04-23T22:40:47.339Z,48.80
2018-04-23T22:43:17.384Z,49.50
2018-04-23T22:45:48.225Z,50.30
2018-04-23T22:48:17.993Z,50.20
2018-04-23T22:50:47.825Z,50.60
2018-04-23T22:53:17.532Z,50.60
2018-04-23T22:55:47.123Z,50.50
2018-04-23T22:58:16.865Z,50.30
2018-04-23T23:00:47.473Z,51.40
2018-04-23T23:03:18.254Z,51.60
2018-04-23T23:05:48.107Z,51.60
2018-04-23T23:08:18.750Z,48.80
2018-04-23T23:10:48.340Z,48.70
2018-04-23T23:13:18.402Z,47.10
2018-04-23T23:15:48.545Z,46.50
2018-04-23T23:18:18.628Z,46.50
2018-04-23T23:20:48.584Z,49.50
2018-04-23T23:23:19.436Z,50.20
2018-04-23T23:25:48.981Z,52.70
2018-04-23T23:28:18.664Z,53.20
2018-04-23T23:30:48.642Z,53.50
2018-04-23T23:33:18.618Z,54.80
2018-04-23T23:35:48.640Z,55.90
2018-04-23T23:38:18.144Z,55.80
2018-04-23T23:40:47.954Z,58.30
2018-04-23T23:43:18.749Z,61.60
2018-04-23T23:45:54.179Z,61.50
2018-04-23T23:48:25.481Z,62.70
2018-04-23T23:50:55.069Z,63.20
2018-04-23T23:53:29.551Z,62.90
2018-04-23T23:56:00.471Z,63.60
2018-04-23T23:58:30.270Z,63.50
